Time;durP1;ratioP1;P1;durP2;ratioP2;P2;SDS_P1;SDS_P2;PMS_P1;PMS_P2;Temp;Humidity;BMP_temperature;BMP_pressure;BME280_temperature;BME280_humidity;BME280_pressure;Samples;Min_cycle;Max_cycle;Signal;HPM_P1;HPM_P2
2022/05/11 00:03:04;;;;;;;14.6;20.2;;;;;;;-133;84.2;65260;;;;
2022/05/11 00:14:04;;;;;;;14.6;20.2;;;;;;;-133;84.6;65270;;;;
2022/05/11 00:24:04;;;;;;;14.6;20.2;;;;;;;-133;83.6;65260;;;;
2022/05/11 00:34:04;;;;;;;11.7;16.6;;;;;;;-133;82.2;65270;;;;
2022/05/11 00:45:04;;;;;;;11.7;16.6;;;;;;;-133;83;65270;;;;
2022/05/11 00:55:04;;;;;;;11.7;16.6;;;;;;;-133;82.4;65260;;;;
2022/05/11 01:05:04;;;;;;;10.1;15.7;;;;;;;-133;85.3;65270;;;;
2022/05/11 01:16:04;;;;;;;10.1;15.7;;;;;;;-133;86;65260;;;;
2022/05/11 01:27:04;;;;;;;10.9;15.1;;;;;;;-133;85.9;65260;;;;
2022/05/11 01:37:04;;;;;;;10.9;15.1;;;;;;;-133;87.6;65270;;;;
2022/05/11 01:47:04;;;;;;;10.9;15.1;;;;;;;-133;87.1;65270;;;;
2022/05/11 01:58:06;;;;;;;8;10.6;;;;;;;-133;86.8;65270;;;;
2022/05/11 02:09:04;;;;;;;8;10.6;;;;;;;-133;86.7;65270;;;;
2022/05/11 02:19:04;;;;;;;8;10.6;;;;;;;-133;87.5;65270;;;;
2022/05/11 02:30:04;;;;;;;8.6;11.5;;;;;;;-133;89.2;65270;;;;
2022/05/11 02:41:05;;;;;;;8.6;11.5;;;;;;;-133;90.6;65260;;;;
2022/05/11 02:52:04;;;;;;;8.6;11.5;;;;;;;-133;90.5;65260;;;;
2022/05/11 03:03:04;;;;;;;9.1;13.4;;;;;;;-133;91.8;65260;;;;
2022/05/11 03:14:04;;;;;;;9.1;13.4;;;;;;;-133;92.6;65260;;;;
2022/05/11 03:24:04;;;;;;;9.1;13.4;;;;;;;-133;92.6;65270;;;;
2022/05/11 03:35:04;;;;;;;10.3;13.5;;;;;;;-133;92.7;65270;;;;
2022/05/11 03:46:04;;;;;;;10.3;13.5;;;;;;;-133;93;65270;;;;
2022/05/11 03:57:04;;;;;;;11.7;20;;;;;;;-133;92.7;65260;;;;
2022/05/11 04:08:04;;;;;;;11.7;20;;;;;;;-133;92.8;65260;;;;
2022/05/11 04:19:04;;;;;;;11.7;20;;;;;;;-133;91.7;65260;;;;
2022/05/11 04:29:04;;;;;;;11.4;18;;;;;;;-133;88.9;65260;;;;
2022/05/11 04:39:04;;;;;;;11.4;18;;;;;;;-133;85.3;65250;;;;
2022/05/11 04:50:04;;;;;;;11.4;18;;;;;;;-133;83.3;65250;;;;
2022/05/11 05:01:06;;;;;;;11.3;16.2;;;;;;;-133;80.9;65250;;;;
2022/05/11 05:11:04;;;;;;;11.3;16.2;;;;;;;-133;79.6;65250;;;;
2022/05/11 05:22:04;;;;;;;11.3;16.2;;;;;;;-133;77.8;65250;;;;
2022/05/11 05:33:04;;;;;;;9.3;12.3;;;;;;;-133;75.8;65250;;;;
2022/05/11 05:43:04;;;;;;;9.3;12.3;;;;;;;-133;74.2;65240;;;;
2022/05/11 05:54:04;;;;;;;9.3;12.3;;;;;;;-133;72.3;65240;;;;
2022/05/11 06:04:05;;;;;;;6.1;12.2;;;;;;;-133;67.9;65240;;;;
2022/05/11 06:14:04;;;;;;;6.1;12.2;;;;;;;-133;63.7;65240;;;;
2022/05/11 06:25:04;;;;;;;6.1;12.2;;;;;;;-133;59.1;65230;;;;
2022/05/11 06:35:04;;;;;;;4.1;10.8;;;;;;;-133;60.3;65230;;;;
2022/05/11 06:46:04;;;;;;;4.1;10.8;;;;;;;-133;57.5;65230;;;;
2022/05/11 07:07:04;;;;;;;3.7;8.4;;;;;;;-133;55.5;65220;;;;
2022/05/11 07:18:04;;;;;;;3.7;8.4;;;;;;;-133;54.5;65230;;;;
2022/05/11 07:28:04;;;;;;;3.6;7.5;;;;;;;-133;50.2;65230;;;;
2022/05/11 07:39:04;;;;;;;3.6;7.5;;;;;;;-133;49.2;65220;;;;
2022/05/11 07:50:04;;;;;;;3.6;7.5;;;;;;;-133;50.3;65220;;;;
2022/05/11 08:01:04;;;;;;;3.7;7.9;;;;;;;-133;48.8;65230;;;;
2022/05/11 08:11:04;;;;;;;3.7;7.9;;;;;;;-133;49.9;65230;;;;
2022/05/11 08:22:04;;;;;;;3.7;7.9;;;;;;;-133;48.8;65230;;;;
2022/05/11 08:33:22;;;;;;;4.4;8.1;;;;;;;-133;42.4;65230;;;;
2022/05/11 08:43:05;;;;;;;4.4;8.1;;;;;;;-133;45.2;65230;;;;
2022/05/11 08:54:04;;;;;;;4.4;8.1;;;;;;;-133;42.6;65230;;;;
2022/05/11 09:04:04;;;;;;;3.4;6.8;;;;;;;-133;44.7;65230;;;;
2022/05/11 09:15:04;;;;;;;3.4;6.8;;;;;;;-133;41.1;65230;;;;
2022/05/11 09:25:04;;;;;;;3.4;6.8;;;;;;;-133;40.1;65230;;;;
2022/05/11 09:36:04;;;;;;;3.8;7.1;;;;;;;-133;39.4;65230;;;;
2022/05/11 09:47:04;;;;;;;3.8;7.1;;;;;;;-133;39.9;65230;;;;
2022/05/11 09:58:06;;;;;;;3.9;7.9;;;;;;;-133;39.2;65230;;;;
2022/05/11 10:09:04;;;;;;;3.9;7.9;;;;;;;-133;38.8;65230;;;;
2022/05/11 10:29:04;;;;;;;3.3;6;;;;;;;-133;38.5;65230;;;;
2022/05/11 10:40:04;;;;;;;3.3;6;;;;;;;-133;37;65230;;;;
2022/05/11 10:51:04;;;;;;;3.3;6;;;;;;;-133;37;65220;;;;
2022/05/11 11:01:04;;;;;;;3.6;8.2;;;;;;;-133;35.8;65230;;;;
2022/05/11 11:11:05;;;;;;;3.6;8.2;;;;;;;-133;35.3;65230;;;;
2022/05/11 11:22:04;;;;;;;3.6;8.2;;;;;;;-133;34.8;65230;;;;
2022/05/11 11:32:04;;;;;;;3.9;8.3;;;;;;;-133;34.8;65230;;;;
2022/05/11 11:43:38;;;;;;;3.9;8.3;;;;;;;-133;33.8;65230;;;;
2022/05/11 11:54:04;;;;;;;3.9;8.3;;;;;;;-133;34.6;65230;;;;
2022/05/11 12:05:04;;;;;;;3.8;6.4;;;;;;;-133;33;65230;;;;
2022/05/11 12:16:04;;;;;;;3.8;6.4;;;;;;;-133;34.7;65230;;;;
2022/05/11 12:26:04;;;;;;;3.4;8.1;;;;;;;-133;32.9;65230;;;;
2022/05/11 12:37:04;;;;;;;3.4;8.1;;;;;;;-133;32.4;65230;;;;
2022/05/11 12:48:04;;;;;;;3.4;8.1;;;;;;;-133;30.7;65230;;;;
2022/05/11 12:59:04;;;;;;;3.3;10.7;;;;;;;-133;31.3;65230;;;;
2022/05/11 13:09:04;;;;;;;3.3;10.7;;;;;;;-133;30.7;65230;;;;
2022/05/11 13:19:04;;;;;;;3.3;10.7;;;;;;;-133;30.9;65230;;;;
2022/05/11 13:29:05;;;;;;;3.2;6.5;;;;;;;-133;30.7;65230;;;;
2022/05/11 13:40:04;;;;;;;3.2;6.5;;;;;;;-133;30.6;65230;;;;
2022/05/11 13:51:04;;;;;;;3.2;6.5;;;;;;;-133;29.9;65230;;;;
2022/05/11 14:01:04;;;;;;;3.2;6.8;;;;;;;-133;31.3;65240;;;;
2022/05/11 14:12:04;;;;;;;3.2;6.8;;;;;;;-133;31.2;65230;;;;
2022/05/11 14:22:05;;;;;;;3.2;6.8;;;;;;;-133;31.8;65240;;;;
2022/05/11 14:32:05;;;;;;;3.3;8.5;;;;;;;-133;31;65240;;;;
2022/05/11 14:43:04;;;;;;;3.3;8.5;;;;;;;-133;32.4;65240;;;;
2022/05/11 14:54:05;;;;;;;3.3;8.5;;;;;;;-133;31;65240;;;;
2022/05/11 15:05:04;;;;;;;3;6.1;;;;;;;-133;30.7;65240;;;;
2022/05/11 15:16:05;;;;;;;3;6.1;;;;;;;-133;29;65240;;;;
2022/05/11 15:26:04;;;;;;;5;12.7;;;;;;;-133;30.7;65240;;;;
2022/05/11 15:37:04;;;;;;;5;12.7;;;;;;;-133;29.7;65240;;;;
2022/05/11 15:47:07;;;;;;;5;12.7;;;;;;;-133;25.8;65240;;;;
2022/05/11 15:57:04;;;;;;;3.6;7.7;;;;;;;-133;26.1;65240;;;;
2022/05/11 16:08:04;;;;;;;3.6;7.7;;;;;;;-133;26.6;65240;;;;
2022/05/11 16:28:04;;;;;;;3;5.9;;;;;;;-133;31.2;65240;;;;
2022/05/11 16:39:04;;;;;;;3;5.9;;;;;;;-133;31.1;65240;;;;
2022/05/11 16:49:04;;;;;;;3;5.9;;;;;;;-133;30.4;65240;;;;
2022/05/11 16:59:04;;;;;;;3.1;6.2;;;;;;;-133;33.3;65250;;;;
2022/05/11 17:10:04;;;;;;;3.1;6.2;;;;;;;-133;34.4;65250;;;;
2022/05/11 17:20:04;;;;;;;3.1;6.2;;;;;;;-133;36.4;65250;;;;
2022/05/11 17:31:04;;;;;;;4.2;10.5;;;;;;;-133;38.3;65250;;;;
2022/05/11 17:41:04;;;;;;;4.2;10.5;;;;;;;-133;39.9;65260;;;;
2022/05/11 17:51:04;;;;;;;4.2;10.5;;;;;;;-133;42.4;65260;;;;
2022/05/11 18:02:04;;;;;;;6.2;20.1;;;;;;;-133;44.8;65250;;;;
2022/05/11 18:12:04;;;;;;;6.2;20.1;;;;;;;-133;49.5;65250;;;;
2022/05/11 18:23:05;;;;;;;6.2;20.1;;;;;;;-133;51.5;65260;;;;
2022/05/11 18:34:08;;;;;;;6;11.5;;;;;;;-133;52.2;65260;;;;
2022/05/11 18:44:04;;;;;;;6;11.5;;;;;;;-133;53.4;65260;;;;
2022/05/11 18:55:04;;;;;;;6;11.5;;;;;;;-133;54.4;65260;;;;
2022/05/11 19:05:05;;;;;;;6.2;16.2;;;;;;;-133;55.6;65260;;;;
2022/05/11 19:16:04;;;;;;;6.2;16.2;;;;;;;-133;55;65260;;;;
2022/05/11 19:27:04;;;;;;;4.9;9;;;;;;;-133;55.7;65260;;;;
2022/05/11 19:37:04;;;;;;;4.9;9;;;;;;;-133;56.6;65260;;;;
2022/05/11 19:47:06;;;;;;;4.9;9;;;;;;;-133;57.2;65260;;;;
2022/05/11 19:58:06;;;;;;;4.8;9.5;;;;;;;-133;57.3;65260;;;;
2022/05/11 20:08:05;;;;;;;4.8;9.5;;;;;;;-133;57.5;65260;;;;
2022/05/11 20:18:05;;;;;;;4.8;9.5;;;;;;;-133;57.7;65260;;;;
2022/05/11 20:29:06;;;;;;;5.3;9.3;;;;;;;-133;58.2;65260;;;;
2022/05/11 20:40:07;;;;;;;5.3;9.3;;;;;;;-133;57.5;65260;;;;
2022/05/11 20:50:04;;;;;;;5.3;9.3;;;;;;;-133;57.3;65260;;;;
2022/05/11 21:01:04;;;;;;;4.6;6.9;;;;;;;-133;57.8;65260;;;;
2022/05/11 21:12:07;;;;;;;4.6;6.9;;;;;;;-133;58.7;65260;;;;
2022/05/11 21:22:04;;;;;;;4.6;6.9;;;;;;;-133;57.9;65260;;;;
2022/05/11 21:32:05;;;;;;;4.3;8.6;;;;;;;-133;58.7;65260;;;;
2022/05/11 21:43:05;;;;;;;4.3;8.6;;;;;;;-133;59.7;65260;;;;
2022/05/11 21:54:05;;;;;;;4.3;8.6;;;;;;;-133;60.4;65260;;;;
2022/05/11 22:05:04;;;;;;;4.6;7;;;;;;;-133;60.6;65260;;;;
2022/05/11 22:15:05;;;;;;;4.6;7;;;;;;;-133;61;65260;;;;
2022/05/11 22:26:04;;;;;;;4;8;;;;;;;-133;60.2;65260;;;;
2022/05/11 22:37:05;;;;;;;4;8;;;;;;;-133;59.7;65260;;;;
2022/05/11 22:47:05;;;;;;;4;8;;;;;;;-133;61;65260;;;;
2022/05/11 22:58:05;;;;;;;4.3;8.1;;;;;;;-133;60.6;65260;;;;
2022/05/11 23:09:04;;;;;;;4.3;8.1;;;;;;;-133;61.7;65260;;;;
2022/05/11 23:19:05;;;;;;;4.3;8.1;;;;;;;-133;62.9;65260;;;;
2022/05/11 23:29:05;;;;;;;4.3;6.5;;;;;;;-133;63.3;65260;;;;
2022/05/11 23:40:07;;;;;;;4.3;6.5;;;;;;;-133;64.3;65260;;;;
2022/05/11 23:51:05;;;;;;;4.3;6.5;;;;;;;-133;64.4;65260;;;;
